Time;durP1;ratioP1;P1;durP2;ratioP2;P2;SDS_P1;SDS_P2;PMS_P1;PMS_P2;Temp;Humidity;BMP_temperature;BMP_pressure;BME280_temperature;BME280_humidity;BME280_pressure;Samples;Min_cycle;Max_cycle;Signal;HPM_P1;HPM_P2
2023/05/04 00:02:23;;;;;;;14.90;4.93;;;;;;;5.42;64.71;101178.78;4224333;28;22989;-70
2023/05/04 00:04:52;;;;;;;14.47;4.97;;;;;;;5.38;65.35;101186.19;4227609;28;21744;-72
2023/05/04 00:07:19;;;;;;;14.80;5.60;;;;;;;5.31;66.14;101180.34;4230804;28;20227;-70
2023/05/04 00:09:46;;;;;;;14.70;5.83;;;;;;;5.30;66.30;101180.41;4229535;28;21765;-68
2023/05/04 00:12:12;;;;;;;11.37;4.67;;;;;;;5.20;66.52;101178.31;4226696;28;22896;-69
2023/05/04 00:14:39;;;;;;;10.67;4.97;;;;;;;5.29;66.55;101167.97;4219659;28;21697;-68
2023/05/04 00:17:06;;;;;;;16.03;5.37;;;;;;;5.31;66.58;101171.41;4228316;28;20239;-73
2023/05/04 00:19:34;;;;;;;13.20;5.00;;;;;;;5.23;68.60;101174.59;4232994;28;20237;-70
2023/05/04 00:22:01;;;;;;;11.20;4.43;;;;;;;5.12;68.00;101177.03;4210770;28;20236;-71
2023/05/04 00:24:28;;;;;;;14.77;5.30;;;;;;;5.12;68.67;101179.72;4216699;28;20242;-67
2023/05/04 00:26:54;;;;;;;16.53;5.13;;;;;;;5.00;68.75;101176.84;4228266;28;20243;-69
2023/05/04 00:29:21;;;;;;;13.60;5.33;;;;;;;4.99;69.35;101185.84;4228051;28;20283;-68
2023/05/04 00:31:47;;;;;;;14.93;5.07;;;;;;;4.96;69.59;101193.22;4227516;28;20413;-66
2023/05/04 00:34:14;;;;;;;12.87;5.47;;;;;;;4.93;69.49;101183.56;4220076;28;23367;-69
2023/05/04 00:36:45;;;;;;;10.43;4.80;;;;;;;5.01;68.98;101183.06;4230024;28;20833;-67
2023/05/04 00:39:11;;;;;;;10.43;5.03;;;;;;;4.95;69.19;101189.66;4226088;28;20239;-68
2023/05/04 00:41:38;;;;;;;13.87;5.30;;;;;;;4.87;69.57;101189.28;4217447;28;20239;-67
2023/05/04 00:44:05;;;;;;;13.57;4.50;;;;;;;4.78;69.31;101185.31;4232318;28;20238;-68
2023/05/04 00:46:32;;;;;;;13.17;5.10;;;;;;;4.75;70.15;101194.41;4228051;28;20474;-69
2023/05/04 00:48:59;;;;;;;14.10;5.30;;;;;;;4.80;69.53;101194.16;4223921;28;20609;-67
2023/05/04 00:51:26;;;;;;;13.53;5.43;;;;;;;4.86;69.05;101190.25;4226294;28;20442;-69
2023/05/04 00:53:55;;;;;;;14.70;5.30;;;;;;;4.76;69.46;101184.53;4235174;28;20254;-66
2023/05/04 00:56:25;;;;;;;13.07;4.93;;;;;;;4.66;69.64;101184.22;4212902;28;20243;-69
2023/05/04 00:58:53;;;;;;;14.77;5.20;;;;;;;4.65;70.11;101195.06;4222080;28;20243;-68
2023/05/04 01:01:21;;;;;;;17.53;6.03;;;;;;;4.53;69.50;101186.75;4203826;28;20645;-67
2023/05/04 01:03:49;;;;;;;17.07;6.37;;;;;;;4.59;69.59;101185.53;4224923;28;21639;-67
2023/05/04 01:06:47;;;;;;;12.63;5.33;;;;;;;4.57;69.79;101182.97;4238265;28;25544;-66
2023/05/04 01:09:33;;;;;;;14.77;6.13;;;;;;;4.56;69.37;101181.22;4219524;28;20315;-69
2023/05/04 01:12:07;;;;;;;14.03;5.90;;;;;;;4.58;69.31;101183.81;4222329;28;20231;-68
2023/05/04 01:14:34;;;;;;;19.67;6.43;;;;;;;4.59;68.67;101185.53;4241570;28;21246;-67
2023/05/04 01:17:04;;;;;;;14.60;6.37;;;;;;;4.68;67.64;101181.47;4212809;28;20651;-66
2023/05/04 01:19:32;;;;;;;15.83;6.73;;;;;;;4.70;67.96;101187.59;4226503;28;20312;-66
2023/05/04 01:21:58;;;;;;;12.80;5.77;;;;;;;4.73;67.42;101182.91;4225395;28;20246;-70
2023/05/04 01:24:25;;;;;;;17.67;6.27;;;;;;;4.78;67.38;101182.63;4230951;28;20222;-71
2023/05/04 01:27:01;;;;;;;15.87;6.40;;;;;;;4.82;66.54;101180.63;4227753;28;20241;-67
2023/05/04 01:29:42;;;;;;;13.90;6.30;;;;;;;4.80;66.56;101183.41;4226962;28;21593;-68
2023/05/04 01:32:09;;;;;;;20.97;6.77;;;;;;;4.81;66.93;101181.59;4223546;28;20460;-69
2023/05/04 01:34:36;;;;;;;16.23;6.60;;;;;;;4.96;66.16;101186.03;4233716;28;26599;-70
2023/05/04 01:37:03;;;;;;;12.27;5.77;;;;;;;4.97;66.21;101176.19;4221642;28;20666;-69
2023/05/04 01:39:30;;;;;;;20.30;6.83;;;;;;;4.95;65.97;101170.88;4230767;28;20307;-68
2023/05/04 01:41:57;;;;;;;17.10;6.67;;;;;;;4.99;66.11;101175.13;4235611;28;21771;-69
2023/05/04 01:44:24;;;;;;;14.53;7.10;;;;;;;4.98;66.28;101170.72;4213113;28;20273;-68
2023/05/04 01:46:50;;;;;;;15.73;6.93;;;;;;;4.97;65.90;101166.28;4233768;28;21712;-71
2023/05/04 01:49:17;;;;;;;15.47;7.20;;;;;;;5.02;65.73;101166.88;4219879;28;20251;-70
2023/05/04 01:51:45;;;;;;;12.83;6.40;;;;;;;4.95;66.38;101168.19;4238214;28;20972;-72
2023/05/04 01:54:12;;;;;;;15.83;5.87;;;;;;;4.90;66.70;101165.81;4219937;28;20243;-69
2023/05/04 01:56:38;;;;;;;17.87;5.90;;;;;;;4.81;66.85;101171.72;4221664;28;21334;-66
2023/05/04 01:59:06;;;;;;;12.93;5.90;;;;;;;4.80;67.02;101163.75;4240057;28;20227;-68
2023/05/04 02:01:32;;;;;;;14.23;5.77;;;;;;;4.76;68.12;101171.13;4249028;28;20675;-71
2023/05/04 02:03:59;;;;;;;19.20;6.73;;;;;;;4.62;68.06;101163.03;4224291;28;21457;-68
2023/05/04 02:06:25;;;;;;;13.10;5.77;;;;;;;4.60;68.07;101173.88;4238384;28;20227;-68
2023/05/04 02:08:52;;;;;;;20.40;6.90;;;;;;;4.47;68.84;101170.19;4226885;28;21466;-68
2023/05/04 02:11:18;;;;;;;13.30;5.83;;;;;;;4.45;68.61;101170.28;4238049;28;20235;-65
2023/05/04 02:13:45;;;;;;;14.60;6.30;;;;;;;4.35;69.40;101177.13;4237298;28;20294;-68
2023/05/04 02:16:12;;;;;;;17.33;6.70;;;;;;;4.31;69.81;101175.56;4239532;28;20424;-69
2023/05/04 02:18:38;;;;;;;15.90;6.27;;;;;;;4.36;69.60;101173.50;4228815;28;20243;-68
2023/05/04 02:21:05;;;;;;;14.20;6.50;;;;;;;4.35;69.07;101169.94;4235594;28;20508;-67
2023/05/04 02:23:31;;;;;;;18.00;6.27;;;;;;;4.32;69.37;101174.59;4237217;28;20243;-71
2023/05/04 02:25:58;;;;;;;19.00;6.37;;;;;;;4.24;70.07;101170.56;4235265;28;20614;-68
2023/05/04 02:28:24;;;;;;;16.70;6.97;;;;;;;4.24;70.31;101172.38;4223555;28;20227;-69
2023/05/04 02:30:51;;;;;;;16.77;6.67;;;;;;;4.24;70.21;101183.97;4212749;28;21346;-68
2023/05/04 02:33:17;;;;;;;22.77;7.50;;;;;;;4.22;70.46;101168.91;4235079;28;22450;-66
2023/05/04 02:35:44;;;;;;;19.80;7.23;;;;;;;4.19;70.87;101171.78;4224768;28;21938;-67
2023/05/04 02:38:10;;;;;;;20.37;7.37;;;;;;;4.24;70.59;101175.06;4213574;28;20226;-67
2023/05/04 02:40:37;;;;;;;19.77;6.87;;;;;;;4.24;70.74;101175.91;4221278;28;20684;-67
2023/05/04 02:43:03;;;;;;;15.50;6.70;;;;;;;4.22;70.60;101167.13;4228595;28;20580;-68
2023/05/04 02:45:30;;;;;;;18.73;6.67;;;;;;;4.24;70.59;101177.75;4229428;28;20234;-68
2023/05/04 02:47:56;;;;;;;18.20;6.67;;;;;;;4.22;70.57;101168.91;4232431;28;23059;-70
2023/05/04 02:50:23;;;;;;;18.93;7.03;;;;;;;4.19;71.20;101161.06;4227463;28;20240;-67
2023/05/04 02:52:49;;;;;;;17.60;6.90;;;;;;;4.17;70.63;101168.34;4227583;28;21522;-66
2023/05/04 02:55:16;;;;;;;16.30;6.73;;;;;;;4.21;71.08;101164.50;4235454;28;20444;-67
2023/05/04 02:57:42;;;;;;;14.53;6.40;;;;;;;4.13;70.97;101164.97;4209143;28;23152;-71
2023/05/04 03:00:09;;;;;;;15.73;6.67;;;;;;;4.08;71.05;101167.03;4230465;28;20310;-68
2023/05/04 03:02:36;;;;;;;15.43;7.13;;;;;;;4.03;72.08;101166.44;4235653;28;20278;-69
2023/05/04 03:05:03;;;;;;;19.90;7.20;;;;;;;4.02;71.76;101170.94;4231900;28;20330;-70
2023/05/04 03:07:29;;;;;;;19.53;7.30;;;;;;;4.03;71.74;101175.34;4237767;28;20402;-67
2023/05/04 03:09:56;;;;;;;18.13;7.80;;;;;;;4.04;72.00;101173.53;4235736;28;20556;-67
2023/05/04 03:12:23;;;;;;;15.60;7.63;;;;;;;4.02;72.29;101178.09;4229413;28;20385;-66
2023/05/04 03:14:49;;;;;;;17.90;7.57;;;;;;;3.95;72.35;101167.72;4213713;28;20305;-69
2023/05/04 03:17:16;;;;;;;19.50;8.70;;;;;;;4.02;72.53;101173.63;4231624;28;22069;-68
2023/05/04 03:19:43;;;;;;;16.63;7.50;;;;;;;4.07;71.90;101171.53;4236980;28;20575;-71
2023/05/04 03:22:09;;;;;;;18.23;7.53;;;;;;;4.13;71.75;101170.31;4239090;28;20242;-69
2023/05/04 03:24:36;;;;;;;18.43;7.70;;;;;;;4.15;71.76;101175.59;4212033;28;20235;-66
2023/05/04 03:27:03;;;;;;;16.37;7.77;;;;;;;4.18;71.97;101170.91;4231671;28;20242;-68
2023/05/04 03:29:30;;;;;;;19.57;8.63;;;;;;;4.19;71.85;101178.00;4234818;28;22195;-68
2023/05/04 03:31:56;;;;;;;24.53;7.80;;;;;;;4.15;72.17;101171.09;4243999;28;20334;-71
2023/05/04 03:34:23;;;;;;;18.30;8.43;;;;;;;4.24;72.23;101170.56;4241942;28;20228;-67
2023/05/04 03:36:49;;;;;;;20.53;7.67;;;;;;;4.25;72.25;101172.28;4221992;28;20348;-68
2023/05/04 03:39:16;;;;;;;20.37;8.23;;;;;;;4.30;71.92;101166.66;4272744;28;20650;-67
2023/05/04 03:41:43;;;;;;;16.73;8.00;;;;;;;4.32;71.80;101169.25;4235468;28;20280;-68
2023/05/04 03:44:10;;;;;;;17.10;8.40;;;;;;;4.34;72.00;101176.28;4229865;28;20265;-71
2023/05/04 03:46:36;;;;;;;15.13;7.70;;;;;;;4.37;71.94;101170.72;4241416;28;20330;-68
2023/05/04 03:49:03;;;;;;;17.43;8.30;;;;;;;4.39;71.96;101170.63;4253987;28;20242;-65
2023/05/04 03:51:30;;;;;;;25.37;9.17;;;;;;;4.46;71.81;101180.03;4245035;28;20424;-68
2023/05/04 03:53:56;;;;;;;23.53;8.60;;;;;;;4.57;71.76;101180.28;4273486;28;20559;-66
2023/05/04 03:56:23;;;;;;;17.40;8.57;;;;;;;4.66;71.92;101173.50;4240675;28;21583;-68
2023/05/04 03:58:49;;;;;;;22.70;8.70;;;;;;;4.77;71.13;101175.53;4250282;28;20943;-67
2023/05/04 04:01:16;;;;;;;17.20;8.37;;;;;;;4.79;71.31;101183.50;4228140;28;21863;-70
2023/05/04 04:03:43;;;;;;;22.63;8.60;;;;;;;4.92;70.84;101185.34;4209104;28;20223;-69
2023/05/04 04:06:10;;;;;;;21.43;8.67;;;;;;;4.92;71.01;101182.66;4241003;28;20304;-68
2023/05/04 04:08:37;;;;;;;25.13;9.23;;;;;;;5.03;70.85;101187.38;4249335;28;20265;-67
2023/05/04 04:11:03;;;;;;;26.47;9.07;;;;;;;5.13;70.43;101190.41;4222457;28;22973;-70
2023/05/04 04:13:30;;;;;;;21.07;9.00;;;;;;;5.25;69.73;101175.31;4222965;28;20408;-70
2023/05/04 04:15:56;;;;;;;29.37;9.33;;;;;;;5.35;70.25;101186.38;4249443;28;20238;-70
2023/05/04 04:18:23;;;;;;;25.07;9.50;;;;;;;5.39;70.32;101185.22;4222160;28;20240;-70
2023/05/04 04:20:50;;;;;;;25.33;10.23;;;;;;;5.49;70.03;101194.44;4228000;28;20243;-67
2023/05/04 04:23:20;;;;;;;21.73;9.47;;;;;;;5.60;69.94;101187.50;4211168;28;20239;-69
2023/05/04 04:25:47;;;;;;;23.23;9.37;;;;;;;5.80;69.63;101192.50;4217156;28;20236;-67
2023/05/04 04:28:13;;;;;;;22.03;9.27;;;;;;;5.98;68.91;101195.84;4235350;28;20436;-67
2023/05/04 04:30:40;;;;;;;20.67;8.80;;;;;;;6.04;69.20;101205.38;4234794;28;20230;-67
2023/05/04 04:33:07;;;;;;;26.97;9.43;;;;;;;6.17;69.31;101197.34;4208582;28;20291;-66
2023/05/04 04:35:34;;;;;;;25.07;10.00;;;;;;;6.29;68.54;101198.38;4236743;28;20581;-68
2023/05/04 04:38:01;;;;;;;33.17;10.97;;;;;;;6.41;67.76;101202.09;4213370;28;20232;-66
2023/05/04 04:40:29;;;;;;;25.30;9.93;;;;;;;6.65;67.79;101199.56;4215622;28;20303;-66
2023/05/04 04:42:56;;;;;;;25.10;10.57;;;;;;;6.77;67.18;101197.88;4221169;28;20239;-69
2023/05/04 04:45:22;;;;;;;29.57;11.13;;;;;;;6.82;66.23;101190.38;4220753;28;21308;-67
2023/05/04 04:47:49;;;;;;;26.70;10.80;;;;;;;6.92;66.45;101193.31;4217262;28;20352;-65
2023/05/04 04:50:17;;;;;;;21.73;9.50;;;;;;;6.98;66.69;101190.19;4209567;28;20229;-66
2023/05/04 04:52:44;;;;;;;24.73;10.43;;;;;;;7.08;65.35;101179.63;4214984;28;22335;-68
2023/05/04 04:55:11;;;;;;;23.73;11.07;;;;;;;7.23;64.86;101194.72;4217527;28;20384;-69
2023/05/04 04:57:37;;;;;;;29.83;13.20;;;;;;;7.32;63.88;101187.84;4221071;28;20318;-65
2023/05/04 05:00:08;;;;;;;36.27;14.33;;;;;;;7.42;63.64;101194.28;4230844;28;20246;-70
2023/05/04 05:02:34;;;;;;;29.87;13.60;;;;;;;7.55;63.51;101183.50;4228200;28;20606;-69
2023/05/04 05:05:01;;;;;;;24.73;10.63;;;;;;;7.59;62.16;101193.09;4223057;28;21115;-66
2023/05/04 05:07:28;;;;;;;24.97;10.57;;;;;;;7.70;61.25;101189.66;4225923;28;20275;-68
2023/05/04 05:09:54;;;;;;;29.63;11.50;;;;;;;7.82;60.76;101187.03;4241664;28;20265;-68
2023/05/04 05:12:21;;;;;;;23.57;10.57;;;;;;;8.01;59.72;101190.09;4237216;28;21760;-69
2023/05/04 05:14:49;;;;;;;29.60;11.03;;;;;;;8.21;58.15;101196.72;4231954;28;20381;-69
2023/05/04 05:17:17;;;;;;;27.97;10.73;;;;;;;8.30;58.05;101203.31;4226683;28;20251;-66
2023/05/04 05:19:44;;;;;;;28.50;10.77;;;;;;;8.37;58.33;101196.47;4220518;28;20305;-66
2023/05/04 05:22:11;;;;;;;21.57;11.23;;;;;;;8.50;57.93;101199.13;4221732;28;20873;-68
2023/05/04 05:24:38;;;;;;;30.97;12.20;;;;;;;8.61;57.24;101194.75;4227998;28;20328;-69
2023/05/04 05:27:04;;;;;;;24.57;10.80;;;;;;;8.69;56.27;101195.91;4227620;28;20317;-71
2023/05/04 05:29:31;;;;;;;25.33;9.10;;;;;;;8.90;55.54;101195.25;4252852;28;22770;-68
2023/05/04 05:31:57;;;;;;;24.57;9.87;;;;;;;9.13;55.24;101204.25;4222912;28;20541;-65
2023/05/04 05:34:24;;;;;;;25.87;10.60;;;;;;;9.35;54.64;101202.59;4233155;28;20309;-67
2023/05/04 05:36:51;;;;;;;21.23;9.83;;;;;;;9.27;53.63;101183.41;4236219;28;20289;-68
2023/05/04 05:39:17;;;;;;;21.10;9.93;;;;;;;9.48;53.43;101192.53;4226930;28;20550;-69
2023/05/04 05:41:44;;;;;;;24.30;10.10;;;;;;;9.70;52.63;101198.94;4224850;28;20244;-69
2023/05/04 05:44:11;;;;;;;25.43;10.80;;;;;;;9.75;52.37;101187.72;4229189;28;20291;-71
2023/05/04 05:46:38;;;;;;;29.67;10.93;;;;;;;9.77;52.19;101192.06;4225526;28;21373;-68
2023/05/04 05:49:06;;;;;;;21.70;10.50;;;;;;;10.06;52.17;101196.06;4254633;28;20231;-65
2023/05/04 05:51:33;;;;;;;23.50;9.53;;;;;;;10.32;50.59;101193.91;4226107;28;20252;-70
2023/05/04 05:53:59;;;;;;;26.33;9.27;;;;;;;10.52;50.93;101186.88;4254814;28;20227;-67
2023/05/04 05:56:26;;;;;;;26.80;9.23;;;;;;;11.37;46.42;101190.47;4243251;28;20364;-67
2023/05/04 05:58:53;;;;;;;22.23;9.43;;;;;;;12.84;44.13;101190.88;4228998;28;20296;-66
2023/05/04 06:01:19;;;;;;;25.13;9.90;;;;;;;14.82;41.13;101184.47;4251258;28;20602;-66
2023/05/04 06:03:46;;;;;;;17.60;8.10;;;;;;;15.98;36.63;101180.63;4270444;28;22472;-68
2023/05/04 06:06:14;;;;;;;19.33;8.43;;;;;;;16.61;35.57;101183.88;4240221;28;20239;-70
2023/05/04 06:08:40;;;;;;;23.40;9.17;;;;;;;17.61;34.55;101179.19;4210464;28;20239;-70
2023/05/04 06:11:07;;;;;;;20.57;8.73;;;;;;;18.77;32.10;101181.34;4241907;28;21618;-71
2023/05/04 06:13:34;;;;;;;18.33;8.40;;;;;;;19.78;30.47;101173.69;4250862;28;21524;-69
2023/05/04 06:16:01;;;;;;;19.73;8.80;;;;;;;21.04;28.66;101177.22;4236937;28;20303;-70
2023/05/04 06:18:27;;;;;;;15.70;7.90;;;;;;;22.55;26.54;101177.63;4227572;28;22172;-67
2023/05/04 06:20:58;;;;;;;15.67;7.63;;;;;;;22.57;25.33;101179.16;4238497;28;20236;-71
2023/05/04 06:23:27;;;;;;;13.80;7.30;;;;;;;22.69;25.09;101170.25;4241124;28;20599;-70
2023/05/04 06:25:53;;;;;;;16.27;8.10;;;;;;;21.12;27.01;101173.47;4226225;28;20256;-68
2023/05/04 06:28:20;;;;;;;18.93;9.10;;;;;;;21.33;26.29;101172.59;4223723;28;22910;-66
2023/05/04 06:30:47;;;;;;;14.53;7.13;;;;;;;21.01;26.97;101177.63;4244407;28;20658;-68
2023/05/04 06:33:14;;;;;;;15.13;7.55;;;;;;;22.66;25.03;101173.44;4237929;28;21852;-71
2023/05/04 06:35:41;;;;;;;16.10;8.52;;;;;;;23.26;24.57;101173.47;4244395;28;20235;-68
2023/05/04 06:38:07;;;;;;;15.77;6.73;;;;;;;25.39;22.03;101178.16;4231093;28;20242;-71
2023/05/04 06:40:34;;;;;;;13.38;6.15;;;;;;;25.52;21.14;101185.50;4238141;28;23990;-67
2023/05/04 06:43:01;;;;;;;17.70;7.22;;;;;;;22.48;23.99;101172.97;4244145;28;20236;-69
2023/05/04 06:45:27;;;;;;;13.38;6.63;;;;;;;24.74;22.35;101182.09;4239501;28;20242;-67
2023/05/04 06:47:54;;;;;;;13.70;7.40;;;;;;;26.12;20.71;101180.38;4233607;28;20251;-69
2023/05/04 06:50:22;;;;;;;16.08;7.95;;;;;;;25.01;22.52;101173.56;4227214;28;20243;-66
2023/05/04 06:52:50;;;;;;;15.45;6.63;;;;;;;26.23;21.08;101174.03;4231433;28;25641;-68
2023/05/04 06:55:17;;;;;;;17.90;6.95;;;;;;;26.61;19.51;101172.84;4234504;28;20242;-69
2023/05/04 06:57:44;;;;;;;19.38;8.27;;;;;;;26.65;20.40;101174.09;4237279;28;20306;-69
2023/05/04 07:00:11;;;;;;;22.58;8.68;;;;;;;26.63;20.44;101173.47;4251808;28;20231;-68
2023/05/04 07:02:38;;;;;;;15.57;7.28;;;;;;;28.42;19.11;101179.81;4234676;28;20247;-69
2023/05/04 07:05:05;;;;;;;15.70;7.63;;;;;;;29.69;17.54;101173.03;4231617;28;21771;-65
2023/05/04 07:07:31;;;;;;;18.95;6.45;;;;;;;29.20;17.48;101179.25;4238352;28;20239;-69
2023/05/04 07:09:58;;;;;;;16.77;6.43;;;;;;;28.01;18.95;101179.00;4223528;28;20967;-72
2023/05/04 07:12:25;;;;;;;15.45;6.68;;;;;;;27.42;19.15;101182.72;4219970;28;22610;-69
2023/05/04 07:14:51;;;;;;;20.80;6.65;;;;;;;26.50;20.03;101179.22;4224887;28;20439;-69
2023/05/04 07:17:20;;;;;;;18.80;7.90;;;;;;;24.24;21.75;101177.25;4233891;28;20398;-66
2023/05/04 07:19:51;;;;;;;24.15;7.70;;;;;;;26.80;20.05;101170.06;4219227;28;20319;-67
2023/05/04 07:22:18;;;;;;;15.20;7.55;;;;;;;27.93;18.64;101183.84;4232911;28;20262;-67
2023/05/04 07:24:45;;;;;;;23.73;8.48;;;;;;;25.66;21.11;101183.47;4244105;28;20450;-65
2023/05/04 07:27:12;;;;;;;18.38;9.00;;;;;;;25.61;20.93;101174.97;4225459;28;20240;-67
2023/05/04 07:29:38;;;;;;;16.75;8.88;;;;;;;25.07;21.19;101175.47;4248164;28;20483;-69
2023/05/04 07:32:05;;;;;;;17.90;8.02;;;;;;;24.31;21.61;101182.78;4227962;28;20236;-68
2023/05/04 07:34:33;;;;;;;19.27;8.30;;;;;;;22.58;23.15;101171.72;4234665;28;20228;-70
2023/05/04 07:37:12;;;;;;;17.05;6.75;;;;;;;24.49;21.48;101182.88;4220970;28;20254;-68
2023/05/04 07:39:38;;;;;;;13.63;5.80;;;;;;;24.16;20.39;101183.91;4249691;28;22344;-66
2023/05/04 07:42:06;;;;;;;11.63;5.50;;;;;;;24.40;20.09;101172.28;4261041;28;20230;-68
2023/05/04 07:44:33;;;;;;;12.53;5.10;;;;;;;24.80;20.10;101177.59;4232099;28;20462;-62
2023/05/04 07:47:00;;;;;;;13.07;5.33;;;;;;;22.45;23.77;101165.13;4234503;28;20236;-67
2023/05/04 07:49:27;;;;;;;15.57;5.53;;;;;;;22.22;23.36;101176.47;4251940;28;20404;-68
2023/05/04 07:51:54;;;;;;;16.03;5.33;;;;;;;22.07;23.11;101162.84;4220834;28;20607;-67
2023/05/04 07:54:21;;;;;;;10.00;5.23;;;;;;;21.99;24.33;101160.25;4212463;28;20323;-70
2023/05/04 07:56:48;;;;;;;11.50;3.97;;;;;;;20.77;24.89;101173.41;4238362;28;20301;-66
2023/05/04 07:59:18;;;;;;;12.10;3.77;;;;;;;20.44;24.86;101166.44;4239744;28;20236;-66
2023/05/04 08:01:46;;;;;;;4.87;2.63;;;;;;;20.09;24.92;101167.09;4238667;28;21475;-66
2023/05/04 08:04:12;;;;;;;9.47;2.43;;;;;;;19.70;24.75;101168.28;4237762;28;21705;-69
2023/05/04 08:06:40;;;;;;;5.63;2.37;;;;;;;19.89;24.78;101166.88;4253310;28;20360;-73
2023/05/04 08:09:07;;;;;;;4.10;2.13;;;;;;;19.72;24.82;101162.59;4235811;28;20232;-65
2023/05/04 08:11:33;;;;;;;9.43;2.30;;;;;;;18.74;26.38;101168.81;4268139;28;20235;-71
2023/05/04 08:14:00;;;;;;;4.40;1.90;;;;;;;19.50;25.02;101173.50;4244413;28;24967;-70
2023/05/04 08:16:28;;;;;;;6.00;2.67;;;;;;;19.22;25.88;101168.59;4239925;28;21856;-67
2023/05/04 08:18:56;;;;;;;9.40;3.43;;;;;;;19.37;26.17;101165.91;4239392;28;20259;-68
2023/05/04 08:21:22;;;;;;;7.07;2.87;;;;;;;19.73;24.34;101167.88;4234520;28;22152;-68
2023/05/04 08:23:49;;;;;;;6.00;2.90;;;;;;;19.70;26.40;101161.91;4226258;28;21022;-67
2023/05/04 08:26:16;;;;;;;11.77;3.33;;;;;;;20.88;25.26;101168.19;4231623;28;20239;-68
2023/05/04 08:28:44;;;;;;;7.60;2.53;;;;;;;18.76;26.11;101163.19;4226020;28;20235;-65
2023/05/04 08:31:14;;;;;;;7.33;2.97;;;;;;;18.84;25.89;101157.63;4236881;28;22336;-67
2023/05/04 08:33:41;;;;;;;4.70;1.93;;;;;;;19.74;25.21;101161.34;4248331;28;20230;-67
2023/05/04 08:36:10;;;;;;;6.30;2.07;;;;;;;20.12;25.06;101152.16;4254957;28;20610;-72
2023/05/04 08:38:37;;;;;;;4.03;1.80;;;;;;;19.64;24.64;101163.53;4235840;28;21048;-65
2023/05/04 08:41:04;;;;;;;5.57;1.97;;;;;;;20.26;23.58;101175.13;4226592;28;20252;-68
2023/05/04 08:43:35;;;;;;;7.63;2.37;;;;;;;21.01;24.37;101166.63;4228617;28;21018;-69
2023/05/04 08:46:02;;;;;;;6.30;2.13;;;;;;;20.69;23.18;101179.84;4239204;28;20247;-66
2023/05/04 08:48:33;;;;;;;6.13;2.30;;;;;;;19.48;24.95;101181.06;4216263;28;20299;-68
2023/05/04 08:51:01;;;;;;;6.00;2.27;;;;;;;18.48;25.58;101175.53;4206020;28;20274;-69
2023/05/04 08:53:29;;;;;;;5.20;2.43;;;;;;;17.78;26.64;101171.75;4210597;28;20353;-67
2023/05/04 08:55:58;;;;;;;8.80;2.67;;;;;;;18.24;26.50;101172.94;4223877;28;20226;-68
2023/05/04 08:58:25;;;;;;;7.47;2.30;;;;;;;18.50;27.20;101167.13;4239446;28;20235;-68
2023/05/04 09:00:52;;;;;;;4.33;2.17;;;;;;;18.51;27.17;101168.84;4231205;28;20614;-67
2023/05/04 09:03:19;;;;;;;13.80;2.90;;;;;;;17.83;28.18;101165.75;4227884;28;21186;-56
2023/05/04 09:05:49;;;;;;;6.27;3.30;;;;;;;17.46;27.98;101164.50;4244330;28;20234;-62
2023/05/04 09:08:16;;;;;;;6.80;1.90;;;;;;;18.12;26.98;101175.22;4244932;28;20269;-69
2023/05/04 09:10:43;;;;;;;5.03;1.93;;;;;;;17.87;26.51;101167.97;4266116;28;23123;-69
2023/05/04 09:13:10;;;;;;;7.90;2.20;;;;;;;17.30;27.17;101170.84;4244546;28;22148;-73
2023/05/04 09:15:37;;;;;;;4.87;2.10;;;;;;;16.68;28.42;101158.56;4236334;28;20231;-67
2023/05/04 09:18:05;;;;;;;6.57;2.47;;;;;;;16.94;27.40;101159.28;4240495;28;25523;-68
2023/05/04 09:20:48;;;;;;;5.67;2.07;;;;;;;16.89;28.15;101161.66;4225779;28;20589;-67
2023/05/04 09:23:16;;;;;;;4.67;1.90;;;;;;;16.20;28.91;101153.72;4226725;28;20243;-67
2023/05/04 09:25:50;;;;;;;5.97;2.03;;;;;;;15.58;32.29;101154.81;4243980;28;21175;-68
2023/05/04 09:28:18;;;;;;;11.83;2.70;;;;;;;15.31;31.04;101153.13;4223737;28;21648;-67
2023/05/04 09:30:46;;;;;;;8.60;2.33;;;;;;;15.74;30.58;101158.63;4215626;28;21384;-70
2023/05/04 09:33:16;;;;;;;5.70;2.10;;;;;;;16.00;29.60;101147.69;4239513;28;20546;-66
2023/05/04 09:35:45;;;;;;;6.73;2.20;;;;;;;16.24;29.98;101159.69;4211555;28;21664;-68
2023/05/04 09:38:24;;;;;;;6.37;2.33;;;;;;;16.71;30.93;101156.34;4226435;28;20223;-66
2023/05/04 09:40:51;;;;;;;6.03;2.33;;;;;;;16.26;30.16;101160.41;4230001;28;20675;-69
2023/05/04 09:43:18;;;;;;;7.37;1.90;;;;;;;16.26;28.94;101150.31;4246617;28;22188;-67
2023/05/04 09:45:45;;;;;;;5.57;2.50;;;;;;;16.58;28.72;101151.38;4238561;28;20374;-66
2023/05/04 09:48:25;;;;;;;8.13;2.00;;;;;;;16.40;29.05;101159.75;4219699;28;20239;-68
2023/05/04 09:51:01;;;;;;;6.23;2.43;;;;;;;16.69;28.80;101147.47;4226816;28;20235;-65
2023/05/04 09:53:29;;;;;;;7.73;2.10;;;;;;;16.86;28.32;101137.38;4218582;28;20232;-66
2023/05/04 09:56:12;;;;;;;7.17;2.03;;;;;;;16.10;29.41;101148.41;4240862;28;21181;-68
2023/05/04 09:58:39;;;;;;;6.40;1.97;;;;;;;16.34;29.36;101143.16;4228778;28;25011;-69
2023/05/04 10:01:07;;;;;;;11.10;3.00;;;;;;;16.57;29.22;101141.47;4225224;28;20231;-69
2023/05/04 10:03:33;;;;;;;6.50;2.50;;;;;;;16.93;30.62;101143.88;4257884;28;20231;-68
2023/05/04 10:06:03;;;;;;;9.33;2.10;;;;;;;17.20;29.55;101130.00;4245814;28;20598;-70
2023/05/04 10:08:33;;;;;;;5.97;2.03;;;;;;;17.13;27.93;101134.47;4235225;28;20242;-70
2023/05/04 10:10:59;;;;;;;5.70;2.40;;;;;;;16.86;27.96;101133.78;4238229;28;20255;-68
2023/05/04 10:13:26;;;;;;;6.63;2.33;;;;;;;16.71;27.83;101122.69;4229720;28;20313;-67
2023/05/04 10:16:23;;;;;;;3.77;2.10;;;;;;;16.71;29.11;101128.16;4214347;28;22155;-68
2023/05/04 10:19:14;;;;;;;8.00;2.07;;;;;;;16.90;30.83;101126.94;4245180;28;20553;-67
2023/05/04 10:22:00;;;;;;;12.20;3.03;;;;;;;16.56;29.97;101125.25;4240372;28;20231;-69
2023/05/04 10:24:53;;;;;;;5.17;2.47;;;;;;;16.61;28.38;101126.47;4239933;28;21764;-66
2023/05/04 10:27:42;;;;;;;5.97;2.90;;;;;;;16.46;29.79;101120.78;4203203;28;21910;-70
2023/05/04 10:30:12;;;;;;;3.70;2.10;;;;;;;16.11;29.11;101117.34;4224405;28;20651;-69
2023/05/04 10:32:39;;;;;;;11.00;2.50;;;;;;;16.15;29.52;101112.41;4250908;28;20230;-69
2023/05/04 10:35:06;;;;;;;5.13;2.50;;;;;;;16.15;30.19;101112.41;4253857;28;20265;-68
2023/05/04 10:37:36;;;;;;;6.83;2.43;;;;;;;16.05;29.60;101117.97;4228326;28;20254;-67
2023/05/04 10:40:04;;;;;;;5.83;2.27;;;;;;;16.40;29.10;101110.56;4253411;28;22063;-68
2023/05/04 10:42:41;;;;;;;7.97;2.53;;;;;;;16.35;28.18;101110.22;4241233;28;20486;-66
2023/05/04 10:45:09;;;;;;;3.50;1.90;;;;;;;16.52;28.98;101108.34;4244300;28;20239;-66
2023/05/04 10:47:38;;;;;;;6.50;2.63;;;;;;;16.99;28.13;101097.75;4245343;28;21196;-68
2023/05/04 10:50:08;;;;;;;5.53;2.50;;;;;;;17.26;29.18;101101.94;4217426;28;20227;-68
2023/05/04 10:52:47;;;;;;;9.67;2.73;;;;;;;17.26;28.74;101093.72;4244385;28;20273;-67
2023/05/04 10:55:15;;;;;;;9.17;3.93;;;;;;;16.96;29.16;101088.00;4246564;28;21568;-68
2023/05/04 10:57:53;;;;;;;4.77;2.50;;;;;;;17.27;28.84;101089.97;4226315;28;22568;-68
2023/05/04 11:00:20;;;;;;;5.03;2.40;;;;;;;16.76;29.35;101103.91;4228399;28;22022;-68
2023/05/04 11:02:47;;;;;;;5.10;2.37;;;;;;;16.52;29.05;101096.53;4248581;28;21451;-71
2023/05/04 11:05:19;;;;;;;5.13;2.60;;;;;;;17.15;27.70;101088.66;4240990;28;20326;-73
2023/05/04 11:07:49;;;;;;;4.23;2.10;;;;;;;16.48;28.85;101090.56;4232540;28;25572;-67
2023/05/04 11:10:23;;;;;;;6.43;2.57;;;;;;;16.05;29.73;101093.41;4232799;28;20294;-69
2023/05/04 11:12:49;;;;;;;7.30;2.57;;;;;;;16.48;30.29;101085.97;4243701;28;20568;-68
2023/05/04 11:15:16;;;;;;;5.23;2.13;;;;;;;16.96;28.70;101074.31;4211426;28;20240;-72
2023/05/04 11:17:47;;;;;;;4.37;2.30;;;;;;;17.07;30.18;101068.50;4241547;28;22352;-68
2023/05/04 11:20:24;;;;;;;5.40;2.57;;;;;;;16.79;29.32;101078.94;4213183;28;20641;-66
2023/05/04 11:22:52;;;;;;;5.20;2.20;;;;;;;16.48;30.04;101071.44;4235534;28;20234;-69
2023/05/04 11:25:29;;;;;;;5.07;3.03;;;;;;;16.86;28.35;101059.97;4232953;28;20254;-71
2023/05/04 11:27:57;;;;;;;7.47;2.80;;;;;;;17.19;27.80;101063.50;4239144;28;20426;-71